createdAt,value
2018-05-18T00:00:22.771Z,42.48
2018-05-18T00:01:22.776Z,42.48
2018-05-18T00:02:43.776Z,42.72
2018-05-18T00:03:24.265Z,42.48
2018-05-18T00:04:24.233Z,42.72
2018-05-18T00:05:23.276Z,42.72
2018-05-18T00:06:23.292Z,42.48
2018-05-18T00:07:45.743Z,45.17
2018-05-18T00:08:44.768Z,42.72
2018-05-18T00:09:23.119Z,42.72
2018-05-18T00:10:23.771Z,43.21
2018-05-18T00:11:23.369Z,42.72
2018-05-18T00:12:24.267Z,47.12
2018-05-18T00:13:24.273Z,42.72
2018-05-18T00:14:24.264Z,43.70
2018-05-18T00:15:44.927Z,43.95
2018-05-18T00:16:24.769Z,42.48
2018-05-18T00:17:24.767Z,42.48
2018-05-18T00:18:24.767Z,42.48
2018-05-18T00:19:46.267Z,42.72
2018-05-18T00:20:46.268Z,42.97
2018-05-18T00:21:24.622Z,43.46
2018-05-18T00:22:25.268Z,43.21
2018-05-18T00:25:57.017Z,43.46
2018-05-18T00:26:57.016Z,43.95
2018-05-18T00:30:42.775Z,44.68
2018-05-18T00:31:28.829Z,43.21
2018-05-18T00:32:30.248Z,43.70
2018-05-18T00:33:50.274Z,42.72
2018-05-18T00:34:29.278Z,42.97
2018-05-18T00:35:29.275Z,43.46
2018-05-18T00:36:49.868Z,42.48
2018-05-18T00:37:43.779Z,42.48
2018-05-18T00:38:30.748Z,43.46
2018-05-18T00:39:29.773Z,44.68
2018-05-18T00:40:30.273Z,42.97
2018-05-18T00:41:30.274Z,80.57
2018-05-18T00:42:44.273Z,46.88
2018-05-18T00:43:31.275Z,83.74
2018-05-18T00:44:57.706Z,43.21
2018-05-18T00:45:32.252Z,42.24
2018-05-18T00:46:30.777Z,42.72
2018-05-18T00:47:51.779Z,79.35
2018-05-18T00:48:31.273Z,42.48
2018-05-18T00:49:52.273Z,42.48
2018-05-18T00:50:45.272Z,43.70
2018-05-18T00:51:31.272Z,44.43
2018-05-18T00:52:51.857Z,79.59
2018-05-18T00:53:31.777Z,43.21
2018-05-18T00:54:32.776Z,42.48
2018-05-18T00:55:33.241Z,42.48
2018-05-18T00:56:32.280Z,42.97
2018-05-18T00:57:34.205Z,42.48
2018-05-18T00:58:34.750Z,42.48
2018-05-18T00:59:33.270Z,82.76
2018-05-18T01:00:53.779Z,42.24
2018-05-18T01:01:53.773Z,42.24
2018-05-18T01:02:32.772Z,42.24
2018-05-18T01:03:54.273Z,42.48
2018-05-18T01:04:54.273Z,42.48
2018-05-18T01:05:40.746Z,42.24
2018-05-18T01:06:53.573Z,42.48
2018-05-18T01:07:33.279Z,42.48
2018-05-18T01:08:33.275Z,61.77
2018-05-18T01:09:47.771Z,42.48
2018-05-18T01:10:55.769Z,44.43
2018-05-18T01:11:54.777Z,42.48
2018-05-18T01:12:35.775Z,42.24
2018-05-18T01:13:55.273Z,42.24
2018-05-18T01:14:35.770Z,41.99
2018-05-18T01:15:34.264Z,42.24
2018-05-18T01:16:34.281Z,42.24
2018-05-18T01:17:35.770Z,42.48
2018-05-18T01:18:35.740Z,42.24
2018-05-18T01:19:34.772Z,42.24
2018-05-18T01:20:34.772Z,42.24
2018-05-18T01:27:10.356Z,41.99
2018-05-18T01:28:10.790Z,42.24
2018-05-18T01:29:12.854Z,42.24
2018-05-18T01:30:11.790Z,42.24
2018-05-18T01:31:23.858Z,42.24
2018-05-18T01:32:30.861Z,42.24
2018-05-18T01:33:10.357Z,42.24
2018-05-18T01:36:41.732Z,42.24
2018-05-18T01:37:41.202Z,44.43
2018-05-18T01:38:42.231Z,43.95
2018-05-18T01:39:42.231Z,42.24
2018-05-18T01:40:44.237Z,42.24
2018-05-18T01:41:42.232Z,42.24
2018-05-18T01:42:44.731Z,42.24
2018-05-18T01:44:03.734Z,42.24
2018-05-18T01:47:14.240Z,42.24
2018-05-18T01:48:13.734Z,41.99
2018-05-18T01:49:14.741Z,41.99
2018-05-18T01:50:14.744Z,41.99
2018-05-18T01:51:14.767Z,41.99
2018-05-18T01:52:14.743Z,42.24
2018-05-18T01:53:21.242Z,80.08
2018-05-18T01:54:36.241Z,41.99
2018-05-18T01:55:15.240Z,41.99
2018-05-18T01:56:14.712Z,41.99
2018-05-18T01:57:38.742Z,46.63
2018-05-18T01:58:15.742Z,42.24
2018-05-18T01:59:15.117Z,46.14
2018-05-18T02:00:36.741Z,44.19
2018-05-18T02:01:18.242Z,41.99
2018-05-18T02:02:16.239Z,43.21
2018-05-18T02:03:16.245Z,44.43
2018-05-18T02:04:16.243Z,43.46
2018-05-18T02:05:38.740Z,41.99
2018-05-18T02:06:37.742Z,42.24
2018-05-18T02:07:16.743Z,53.96
2018-05-18T02:08:16.744Z,53.22
2018-05-18T02:09:38.243Z,42.24
2018-05-18T02:10:17.243Z,42.48
2018-05-18T02:11:17.249Z,42.24
2018-05-18T02:12:17.242Z,45.41
2018-05-18T02:13:19.179Z,42.24
2018-05-18T02:14:41.242Z,42.24
2018-05-18T02:15:38.750Z,42.24
2018-05-18T02:16:17.741Z,42.24
2018-05-18T02:17:40.173Z,42.72
2018-05-18T02:18:39.241Z,42.24
2018-05-18T02:19:17.592Z,42.24
2018-05-18T02:20:18.240Z,42.24
2018-05-18T02:21:18.740Z,42.24
2018-05-18T02:22:19.676Z,42.24
2018-05-18T02:23:18.740Z,42.24
2018-05-18T02:24:18.741Z,84.72
2018-05-18T02:27:50.545Z,43.70
2018-05-18T02:28:50.540Z,42.72
2018-05-18T02:29:53.040Z,83.01
2018-05-18T02:30:51.041Z,42.24
2018-05-18T02:31:50.387Z,42.24
2018-05-18T02:32:51.040Z,43.46
2018-05-18T02:33:51.540Z,45.90
2018-05-18T02:34:51.540Z,85.94
2018-05-18T02:35:52.041Z,50.78
2018-05-18T02:36:51.657Z,82.03
2018-05-18T02:37:51.137Z,87.40
2018-05-18T02:38:52.040Z,85.94
2018-05-18T02:39:52.040Z,84.47
2018-05-18T02:40:52.043Z,90.09
2018-05-18T02:44:23.815Z,61.04
2018-05-18T02:45:23.817Z,62.01
2018-05-18T02:46:39.313Z,85.94
2018-05-18T02:47:44.541Z,60.79
2018-05-18T02:48:46.272Z,63.23
2018-05-18T02:49:24.315Z,63.23
2018-05-18T02:50:24.815Z,63.96
2018-05-18T02:51:45.815Z,64.94
2018-05-18T02:54:55.728Z,64.70
2018-05-18T02:55:56.360Z,65.92
2018-05-18T02:56:57.857Z,65.92
2018-05-18T02:57:56.866Z,63.96
2018-05-18T02:59:17.192Z,84.47
2018-05-18T02:59:58.877Z,64.94
2018-05-18T03:01:17.432Z,67.63
2018-05-18T03:02:11.360Z,65.43
2018-05-18T03:02:57.361Z,66.16
2018-05-18T03:06:28.888Z,74.22
2018-05-18T03:07:28.889Z,77.39
2018-05-18T03:08:30.386Z,77.88
2018-05-18T03:09:50.395Z,63.48
2018-05-18T03:10:30.385Z,55.42
2018-05-18T03:11:30.863Z,70.56
2018-05-18T03:15:22.119Z,57.13
2018-05-18T03:16:01.124Z,72.02
2018-05-18T03:19:46.884Z,80.81
2018-05-18T03:20:53.948Z,61.52
2018-05-18T03:24:04.633Z,56.15
2018-05-18T03:25:04.638Z,56.64
2018-05-18T03:26:05.131Z,80.32
2018-05-18T03:27:28.134Z,79.83
2018-05-18T03:28:05.130Z,62.26
2018-05-18T03:29:05.131Z,59.33
2018-05-18T03:32:36.228Z,67.14
2018-05-18T03:33:57.879Z,84.96
2018-05-18T03:34:58.377Z,81.05
2018-05-18T03:35:40.810Z,58.35
2018-05-18T03:36:38.833Z,58.59
2018-05-18T03:37:37.416Z,57.86
2018-05-18T03:38:43.883Z,83.50
2018-05-18T03:39:58.880Z,63.23
2018-05-18T03:43:09.257Z,57.86
2018-05-18T03:44:09.257Z,83.98
2018-05-18T03:47:41.018Z,60.55
2018-05-18T03:48:41.029Z,61.77
2018-05-18T03:49:41.514Z,60.30
2018-05-18T03:50:44.523Z,81.05
2018-05-18T03:52:02.521Z,83.50
2018-05-18T03:52:41.514Z,52.49
2018-05-18T03:53:42.015Z,84.72
2018-05-18T03:54:43.947Z,84.72
2018-05-18T03:55:42.054Z,60.30
2018-05-18T03:56:42.015Z,81.05
2018-05-18T03:57:42.517Z,79.59
2018-05-18T03:58:42.513Z,47.85
2018-05-18T03:59:42.515Z,49.07
2018-05-18T04:01:03.515Z,48.83
2018-05-18T04:01:43.021Z,51.03
2018-05-18T04:02:42.234Z,83.74
2018-05-18T04:04:04.015Z,83.98
2018-05-18T04:05:04.015Z,58.35
2018-05-18T04:05:43.515Z,65.92
2018-05-18T04:09:14.901Z,56.64
2018-05-18T04:10:14.944Z,81.79
2018-05-18T04:11:15.396Z,84.47
2018-05-18T04:12:14.619Z,56.40
2018-05-18T04:13:15.396Z,81.79
2018-05-18T04:14:15.398Z,82.76
2018-05-18T04:15:15.897Z,83.74
2018-05-18T04:16:15.893Z,84.96
2018-05-18T04:17:15.902Z,59.08
2018-05-18T04:18:15.904Z,83.98
2018-05-18T04:19:31.395Z,83.98
2018-05-18T04:20:34.330Z,83.98
2018-05-18T04:21:17.394Z,84.96
2018-05-18T04:22:16.401Z,61.52
2018-05-18T04:23:39.375Z,79.35
2018-05-18T04:26:48.263Z,83.25
2018-05-18T04:27:48.264Z,80.08
2018-05-18T04:28:48.763Z,80.08
2018-05-18T04:29:48.763Z,84.72
2018-05-18T04:30:48.760Z,87.40
2018-05-18T04:31:48.765Z,84.96
2018-05-18T04:32:49.263Z,86.18
2018-05-18T04:33:49.263Z,59.81
2018-05-18T04:34:49.260Z,81.54
2018-05-18T04:35:49.269Z,85.21
2018-05-18T04:36:48.868Z,82.52
2018-05-18T04:37:49.760Z,61.52
2018-05-18T04:38:49.762Z,82.52
2018-05-18T04:39:49.762Z,84.72
2018-05-18T04:43:23.013Z,69.34
2018-05-18T04:44:21.335Z,71.53
2018-05-18T04:45:22.020Z,65.92
2018-05-18T04:46:22.019Z,87.40
2018-05-18T04:47:22.526Z,57.86
2018-05-18T04:48:43.553Z,83.98
2018-05-18T04:49:22.519Z,53.96
2018-05-18T04:50:22.518Z,59.81
2018-05-18T04:51:23.959Z,88.13
2018-05-18T04:52:23.020Z,83.25
2018-05-18T04:53:23.018Z,60.55
2018-05-18T04:54:23.024Z,86.43
2018-05-18T04:55:22.488Z,47.85
2018-05-18T04:56:23.519Z,82.52
2018-05-18T04:57:24.480Z,84.72
2018-05-18T04:58:23.526Z,47.85
2018-05-18T04:59:46.519Z,77.64
2018-05-18T05:04:26.590Z,70.80
2018-05-18T05:05:26.120Z,62.26
2018-05-18T05:06:48.095Z,55.18
2018-05-18T05:07:28.523Z,83.98
2018-05-18T05:08:48.088Z,49.56
2018-05-18T05:09:27.090Z,83.01
2018-05-18T05:10:49.091Z,82.28
2018-05-18T05:13:59.964Z,79.35
2018-05-18T05:14:58.973Z,83.50
2018-05-18T05:18:30.827Z,85.21
2018-05-18T05:19:30.785Z,82.03
2018-05-18T05:20:31.270Z,85.45
2018-05-18T05:24:02.665Z,84.23
2018-05-18T05:25:02.661Z,83.74
2018-05-18T05:31:36.624Z,84.96
2018-05-18T05:32:37.293Z,85.45
2018-05-18T05:37:40.462Z,51.51
2018-05-18T05:38:40.459Z,83.01
2018-05-18T05:39:42.435Z,83.98
2018-05-18T05:40:42.427Z,81.79
2018-05-18T05:41:46.960Z,79.83
2018-05-18T05:42:40.960Z,83.01
2018-05-18T05:43:41.463Z,85.94
2018-05-18T05:44:42.456Z,84.96
2018-05-18T05:45:41.458Z,83.98
2018-05-18T05:46:44.899Z,82.28
2018-05-18T05:48:02.957Z,83.98
2018-05-18T05:51:13.366Z,84.72
2018-05-18T05:52:13.369Z,82.52
2018-05-18T05:55:45.114Z,87.40
2018-05-18T05:56:45.115Z,50.78
2018-05-18T05:57:45.613Z,81.54
2018-05-18T06:05:19.987Z,60.79
2018-05-18T06:06:19.916Z,86.91
2018-05-18T06:07:29.343Z,84.47
2018-05-18T06:08:20.418Z,78.86
2018-05-18T06:09:20.407Z,83.98
2018-05-18T06:10:20.408Z,83.74
2018-05-18T06:11:44.406Z,85.21
2018-05-18T06:12:20.225Z,58.11
2018-05-18T06:13:20.905Z,85.94
2018-05-18T06:14:20.907Z,85.45
2018-05-18T06:15:21.413Z,81.54
2018-05-18T06:16:21.407Z,83.01
2018-05-18T06:17:21.406Z,59.33
2018-05-18T06:18:21.406Z,83.74
2018-05-18T06:19:22.925Z,77.88
2018-05-18T06:20:21.900Z,84.23
2018-05-18T06:21:21.259Z,84.23
2018-05-18T06:22:21.909Z,58.35
2018-05-18T06:23:22.406Z,87.16
2018-05-18T06:24:22.406Z,73.73
2018-05-18T06:25:43.406Z,79.83
2018-05-18T06:26:22.411Z,82.03
2018-05-18T06:27:36.910Z,83.25
2018-05-18T06:28:22.913Z,82.52
2018-05-18T06:29:22.272Z,64.94
2018-05-18T06:32:55.972Z,86.43
2018-05-18T06:33:55.940Z,78.61
2018-05-18T06:34:56.021Z,81.79
2018-05-18T06:36:16.508Z,64.94
2018-05-18T06:36:55.510Z,85.69
2018-05-18T06:37:56.979Z,83.98
2018-05-18T06:38:55.509Z,62.74
2018-05-18T06:39:57.941Z,82.03
2018-05-18T06:40:57.447Z,83.74
2018-05-18T06:42:17.007Z,80.08
2018-05-18T06:42:57.016Z,81.30
2018-05-18T06:43:56.007Z,84.23
2018-05-18T06:44:57.504Z,78.61
2018-05-18T06:45:56.505Z,85.94
2018-05-18T06:46:56.510Z,82.52
2018-05-18T06:47:57.511Z,61.52
2018-05-18T06:48:57.013Z,81.30
2018-05-18T06:49:57.006Z,83.50
2018-05-18T06:51:17.335Z,82.76
2018-05-18T06:52:20.006Z,82.76
2018-05-18T06:52:57.018Z,82.28
2018-05-18T06:53:57.507Z,84.96
2018-05-18T06:54:58.006Z,78.13
2018-05-18T06:55:57.509Z,85.69
2018-05-18T06:56:57.505Z,84.96
2018-05-18T06:57:57.102Z,85.45
2018-05-18T06:58:59.991Z,55.66
2018-05-18T06:59:58.020Z,80.81
2018-05-18T07:00:58.005Z,83.74
2018-05-18T07:01:58.504Z,84.47
2018-05-18T07:02:57.726Z,72.27
2018-05-18T07:04:20.958Z,80.08
2018-05-18T07:04:57.934Z,81.54
2018-05-18T07:06:20.004Z,85.45
2018-05-18T07:06:59.004Z,57.86
2018-05-18T07:07:58.251Z,80.08
2018-05-18T07:09:01.021Z,83.74
2018-05-18T07:09:59.010Z,83.50
2018-05-18T07:11:05.516Z,85.69
2018-05-18T07:12:00.937Z,84.23
2018-05-18T07:12:58.850Z,62.01
2018-05-18T07:13:59.515Z,77.15
2018-05-18T07:14:59.507Z,85.21
2018-05-18T07:16:01.471Z,83.98
2018-05-18T07:17:21.005Z,61.52
2018-05-18T07:18:00.007Z,80.57
2018-05-18T07:19:21.004Z,82.28
2018-05-18T07:22:46.265Z,59.08
2018-05-18T07:23:53.256Z,86.91
2018-05-18T07:24:32.255Z,62.26
2018-05-18T07:25:32.758Z,82.76
2018-05-18T07:26:53.756Z,80.08
2018-05-18T07:27:32.757Z,83.74
2018-05-18T07:28:32.270Z,85.21
2018-05-18T07:29:53.381Z,83.74
2018-05-18T07:30:33.252Z,63.23
2018-05-18T07:31:54.253Z,83.50
2018-05-18T07:32:33.298Z,80.57
2018-05-18T07:33:48.687Z,85.21
2018-05-18T07:34:33.755Z,83.01
2018-05-18T07:35:33.125Z,84.47
2018-05-18T07:36:34.756Z,50.54
2018-05-18T07:37:33.348Z,51.27
2018-05-18T07:39:01.262Z,82.28
2018-05-18T07:39:34.255Z,57.37
2018-05-18T07:40:33.733Z,81.54
2018-05-18T07:41:35.259Z,87.65
2018-05-18T07:42:57.753Z,84.96
2018-05-18T07:43:34.110Z,84.72
2018-05-18T07:44:34.753Z,83.25
2018-05-18T07:45:55.339Z,83.98
2018-05-18T07:46:36.229Z,56.15
2018-05-18T07:47:35.254Z,61.52
2018-05-18T07:48:35.256Z,62.26
2018-05-18T07:49:42.194Z,83.50
2018-05-18T07:56:11.213Z,81.54
2018-05-18T07:57:10.277Z,82.52
2018-05-18T07:58:09.875Z,64.70
2018-05-18T07:59:10.777Z,60.30
2018-05-18T08:00:10.146Z,85.21
2018-05-18T08:03:43.800Z,77.15
2018-05-18T08:04:42.366Z,85.94
2018-05-18T08:05:42.514Z,89.60
2018-05-18T08:06:48.868Z,46.14
2018-05-18T08:07:43.887Z,86.43
2018-05-18T08:08:42.865Z,83.98
2018-05-18T08:09:42.869Z,85.45
2018-05-18T08:10:42.865Z,83.74
2018-05-18T08:11:42.463Z,82.28
2018-05-18T08:12:43.365Z,79.35
2018-05-18T08:13:45.859Z,52.98
2018-05-18T08:14:43.366Z,84.23
2018-05-18T08:16:04.869Z,82.76
2018-05-18T08:16:43.102Z,65.43
2018-05-18T08:17:43.866Z,84.23
2018-05-18T08:18:43.866Z,84.23
2018-05-18T08:19:44.366Z,73.73
2018-05-18T08:20:58.368Z,84.72
2018-05-18T08:21:44.367Z,82.76
2018-05-18T08:22:44.374Z,83.74
2018-05-18T08:26:17.552Z,81.30
2018-05-18T08:27:16.111Z,86.18
2018-05-18T08:28:16.119Z,77.15
2018-05-18T08:29:43.611Z,83.01
2018-05-18T08:30:39.585Z,51.27
2018-05-18T08:31:15.937Z,83.98
2018-05-18T08:32:16.654Z,56.64
2018-05-18T08:33:23.122Z,85.69
2018-05-18T08:34:40.111Z,80.57
2018-05-18T08:35:16.339Z,84.23
2018-05-18T08:36:17.113Z,84.47
2018-05-18T08:37:38.116Z,83.01
2018-05-18T08:38:16.721Z,84.96
2018-05-18T08:39:38.611Z,85.21
2018-05-18T08:40:20.543Z,83.25
2018-05-18T08:41:17.116Z,62.01
2018-05-18T08:42:18.115Z,82.76
2018-05-18T08:43:24.543Z,83.74
2018-05-18T08:46:49.484Z,87.65
2018-05-18T08:47:49.486Z,58.11
2018-05-18T08:49:12.991Z,81.79
2018-05-18T08:49:49.985Z,83.50
2018-05-18T08:51:16.985Z,82.52
2018-05-18T08:51:49.472Z,83.01
2018-05-18T08:55:21.726Z,82.52
2018-05-18T08:56:21.719Z,59.08
2018-05-18T08:57:28.219Z,84.96
2018-05-18T08:58:21.473Z,78.37
2018-05-18T08:59:22.217Z,85.94
2018-05-18T09:00:28.245Z,82.52
2018-05-18T09:01:43.724Z,53.96
2018-05-18T09:02:22.719Z,83.50
2018-05-18T09:03:22.718Z,56.40
2018-05-18T09:04:22.727Z,48.34
2018-05-18T09:05:23.225Z,92.77
2018-05-18T09:06:23.218Z,81.05
2018-05-18T09:07:23.218Z,83.25
2018-05-18T09:08:23.218Z,87.16
2018-05-18T09:09:23.767Z,69.82
2018-05-18T09:10:24.716Z,81.54
2018-05-18T09:11:25.184Z,71.04
2018-05-18T09:12:23.718Z,80.81
2018-05-18T09:13:23.345Z,82.52
2018-05-18T09:14:45.228Z,85.69
2018-05-18T09:15:24.219Z,58.59
2018-05-18T09:16:24.218Z,83.01
2018-05-18T09:17:44.797Z,82.76
2018-05-18T09:18:24.718Z,81.05
2018-05-18T09:19:24.715Z,81.54
2018-05-18T09:20:24.728Z,84.47
2018-05-18T09:21:46.218Z,60.06
2018-05-18T09:22:26.233Z,84.23
2018-05-18T09:23:24.602Z,81.54
2018-05-18T09:24:47.159Z,83.01
2018-05-18T09:25:46.724Z,81.79
2018-05-18T09:26:31.812Z,81.54
2018-05-18T09:27:25.718Z,68.12
2018-05-18T09:28:33.150Z,83.25
2018-05-18T09:29:25.718Z,81.54
2018-05-18T09:30:27.216Z,61.77
2018-05-18T09:31:25.439Z,81.05
2018-05-18T09:32:40.221Z,83.98
2018-05-18T09:33:25.698Z,80.57
2018-05-18T09:34:27.726Z,79.59
2018-05-18T09:35:47.725Z,58.11
2018-05-18T09:36:26.717Z,85.94
2018-05-18T09:37:47.725Z,83.74
2018-05-18T09:38:28.191Z,52.00
2018-05-18T09:39:33.219Z,64.70
2018-05-18T09:40:27.229Z,83.50
2018-05-18T09:41:27.223Z,81.79
2018-05-18T09:42:50.718Z,81.05
2018-05-18T09:43:47.942Z,81.79
2018-05-18T09:44:27.721Z,79.83
2018-05-18T09:45:27.743Z,65.19
2018-05-18T09:46:28.302Z,82.76
2018-05-18T09:47:51.217Z,74.22
2018-05-18T09:48:29.213Z,81.54
2018-05-18T09:49:34.217Z,83.98
2018-05-18T09:50:28.218Z,82.03
2018-05-18T09:51:55.728Z,66.89
2018-05-18T09:52:28.719Z,80.08
2018-05-18T09:53:48.922Z,82.76
2018-05-18T09:54:28.842Z,81.05
2018-05-18T09:55:29.025Z,80.57
2018-05-18T09:56:28.718Z,78.61
2018-05-18T09:57:29.217Z,84.72
2018-05-18T09:58:35.150Z,83.74
2018-05-18T09:59:29.222Z,82.76
2018-05-18T10:00:29.225Z,62.26
2018-05-18T10:05:32.433Z,88.38
2018-05-18T10:06:32.424Z,67.87
2018-05-18T10:07:32.062Z,81.05
2018-05-18T10:08:32.135Z,83.01
2018-05-18T10:09:32.219Z,82.28
2018-05-18T10:10:32.929Z,83.98
2018-05-18T10:11:32.942Z,80.57
2018-05-18T10:12:48.855Z,83.74
2018-05-18T10:17:36.584Z,84.47
2018-05-18T10:18:36.628Z,85.94
2018-05-18T10:19:37.596Z,83.50
2018-05-18T10:20:37.106Z,82.52
2018-05-18T10:24:09.597Z,82.52
2018-05-18T10:25:08.604Z,83.25
2018-05-18T10:28:40.344Z,85.94
2018-05-18T10:29:40.345Z,83.01
2018-05-18T10:33:26.128Z,79.10
2018-05-18T10:34:11.605Z,84.23
2018-05-18T10:35:11.709Z,76.42
2018-05-18T10:36:12.628Z,83.50
2018-05-18T10:37:39.613Z,79.35
2018-05-18T10:38:33.616Z,83.50
2018-05-18T10:39:12.617Z,47.12
2018-05-18T10:40:13.176Z,85.45
2018-05-18T10:41:34.119Z,83.98
2018-05-18T10:42:34.118Z,51.76
2018-05-18T10:43:13.117Z,81.54
2018-05-18T10:44:12.588Z,55.91
2018-05-18T10:45:13.690Z,86.43
2018-05-18T10:46:13.626Z,79.59
2018-05-18T10:47:13.620Z,84.23
2018-05-18T10:48:13.624Z,79.59
2018-05-18T10:49:34.207Z,81.79
2018-05-18T10:52:47.485Z,81.05
2018-05-18T10:55:12.982Z,85.94
2018-05-18T10:55:48.463Z,84.47
2018-05-18T10:56:45.322Z,82.52
2018-05-18T10:57:45.465Z,83.50
2018-05-18T11:01:28.644Z,81.54
2018-05-18T11:06:20.411Z,84.47
2018-05-18T11:07:42.070Z,79.35
2018-05-18T11:08:21.565Z,55.91
2018-05-18T11:09:27.563Z,58.84
2018-05-18T11:10:21.565Z,82.03
2018-05-18T11:11:21.056Z,85.21
2018-05-18T11:12:43.386Z,81.79
2018-05-18T11:15:52.741Z,84.47
2018-05-18T11:16:54.823Z,83.25
2018-05-18T11:18:14.891Z,82.03
2018-05-18T11:18:53.918Z,80.57
2018-05-18T11:19:53.895Z,84.96
2018-05-18T11:20:53.891Z,82.52
2018-05-18T11:21:56.822Z,84.47
2018-05-18T11:22:54.390Z,81.54
2018-05-18T11:26:25.933Z,55.18
2018-05-18T11:27:26.022Z,79.59
2018-05-18T11:28:47.418Z,80.57
2018-05-18T11:29:42.353Z,83.50
2018-05-18T11:30:48.850Z,84.47
2018-05-18T11:31:27.851Z,83.50
2018-05-18T11:32:28.919Z,85.69
2018-05-18T11:33:40.917Z,84.72
2018-05-18T11:34:28.920Z,84.23
2018-05-18T11:39:32.349Z,83.01
2018-05-18T11:45:10.232Z,61.04
2018-05-18T11:46:11.733Z,57.62
2018-05-18T11:46:47.949Z,64.21
2018-05-18T11:48:09.731Z,81.05
2018-05-18T11:48:48.725Z,82.52
2018-05-18T11:50:10.230Z,83.98
2018-05-18T11:51:03.300Z,82.76
2018-05-18T11:51:49.226Z,83.98
2018-05-18T11:55:22.871Z,83.25
2018-05-18T11:56:43.318Z,82.03
2018-05-18T11:57:42.365Z,72.51
2018-05-18T11:58:20.731Z,83.25
2018-05-18T11:59:41.797Z,81.05
2018-05-18T12:00:23.897Z,84.47
2018-05-18T12:01:42.865Z,81.54
2018-05-18T12:02:48.890Z,83.01
2018-05-18T12:03:21.864Z,54.44
2018-05-18T12:04:21.864Z,80.57
2018-05-18T12:07:53.643Z,77.64
2018-05-18T12:08:53.661Z,86.43
2018-05-18T12:09:54.121Z,86.91
2018-05-18T12:11:16.553Z,84.72
2018-05-18T12:11:54.119Z,81.05
2018-05-18T12:12:54.127Z,82.03
2018-05-18T12:20:30.920Z,83.01
2018-05-18T12:24:02.314Z,82.52
2018-05-18T12:25:01.833Z,82.03
2018-05-18T12:26:24.798Z,82.76
2018-05-18T12:27:16.811Z,91.55
2018-05-18T12:28:03.801Z,83.74
2018-05-18T12:29:23.800Z,50.29
2018-05-18T12:30:09.302Z,56.64
2018-05-18T12:31:04.732Z,85.94
2018-05-18T12:32:03.302Z,84.23
2018-05-18T12:33:02.776Z,66.65
2018-05-18T12:34:17.801Z,52.98
2018-05-18T12:35:05.268Z,80.57
2018-05-18T12:38:35.301Z,83.50
2018-05-18T12:39:35.298Z,75.93
2018-05-18T12:44:37.910Z,82.52
2018-05-18T12:45:38.523Z,84.96
2018-05-18T12:46:39.023Z,81.30
2018-05-18T12:47:39.024Z,84.72
2018-05-18T12:48:39.018Z,64.94
2018-05-18T12:49:39.023Z,84.72
2018-05-18T12:50:53.524Z,78.86
2018-05-18T12:52:00.530Z,85.45
2018-05-18T12:59:14.286Z,82.76
2018-05-18T13:00:14.293Z,81.79
2018-05-18T13:04:09.531Z,81.54
2018-05-18T13:07:17.401Z,84.96
2018-05-18T13:08:39.055Z,83.25
2018-05-18T13:09:38.656Z,59.57
2018-05-18T13:10:45.556Z,66.65
2018-05-18T13:11:18.555Z,81.30
2018-05-18T13:12:20.556Z,81.54
2018-05-18T13:13:19.057Z,80.57
2018-05-18T13:19:53.344Z,84.47
2018-05-18T13:20:54.776Z,84.23
2018-05-18T13:22:07.842Z,80.57
2018-05-18T13:22:59.852Z,82.03
2018-05-18T13:26:25.351Z,81.54
2018-05-18T13:27:25.363Z,82.28
2018-05-18T13:32:28.542Z,82.03
2018-05-18T13:36:14.180Z,83.01
2018-05-18T13:37:00.180Z,83.74
2018-05-18T13:42:03.369Z,82.76
2018-05-18T13:48:06.650Z,79.59
2018-05-18T13:49:06.651Z,81.54
2018-05-18T13:50:30.144Z,84.23
2018-05-18T13:51:08.213Z,83.25
2018-05-18T13:52:06.580Z,83.01
2018-05-18T13:53:13.158Z,84.96
2018-05-18T13:54:28.145Z,82.52
2018-05-18T13:57:38.243Z,80.57
2018-05-18T13:58:38.896Z,79.10
2018-05-18T14:02:11.648Z,79.10
2018-05-18T14:03:10.651Z,82.52
2018-05-18T14:08:36.149Z,83.74
2018-05-18T14:09:28.650Z,81.30
2018-05-18T14:10:35.649Z,78.13
2018-05-18T14:11:15.588Z,79.10
2018-05-18T14:12:35.650Z,83.50
2018-05-18T14:13:35.651Z,82.52
2018-05-18T14:14:21.083Z,77.64
2018-05-18T14:15:15.153Z,80.81
2018-05-18T14:16:16.148Z,83.50
2018-05-18T14:17:15.151Z,84.96
2018-05-18T14:18:15.150Z,83.01
2018-05-18T14:19:15.658Z,85.69
2018-05-18T14:20:17.133Z,82.03
2018-05-18T14:23:47.642Z,85.45
2018-05-18T14:24:46.993Z,83.50
2018-05-18T14:25:47.128Z,82.52
2018-05-18T14:27:12.074Z,78.37
2018-05-18T14:27:48.142Z,82.76
2018-05-18T14:32:51.093Z,84.47
2018-05-18T14:33:50.575Z,82.76
2018-05-18T14:37:22.286Z,81.30
2018-05-18T14:38:44.330Z,81.05
2018-05-18T14:39:25.761Z,78.86
2018-05-18T14:42:54.068Z,63.48
2018-05-18T14:43:54.791Z,78.61
2018-05-18T14:47:26.467Z,68.36
2018-05-18T14:48:25.965Z,87.65
2018-05-18T14:49:26.059Z,85.45
2018-05-18T14:50:27.964Z,83.98
2018-05-18T14:51:26.969Z,81.05
2018-05-18T14:52:26.967Z,82.03
2018-05-18T14:53:27.481Z,81.79
2018-05-18T14:56:58.872Z,83.01
2018-05-18T14:57:58.349Z,83.01
2018-05-18T14:58:59.377Z,82.52
2018-05-18T14:59:58.628Z,83.74
2018-05-18T15:06:03.721Z,82.76
2018-05-18T15:07:02.748Z,82.03
2018-05-18T15:21:14.194Z,82.03
2018-05-18T15:24:44.836Z,84.23
2018-05-18T15:25:44.822Z,79.83
2018-05-18T15:27:05.433Z,80.57
2018-05-18T15:27:44.523Z,83.74
2018-05-18T15:28:45.349Z,85.21
2018-05-18T15:29:45.326Z,82.28
2018-05-18T15:30:44.799Z,84.96
2018-05-18T15:31:45.827Z,84.96
2018-05-18T15:32:45.070Z,79.10
2018-05-18T15:33:45.822Z,81.54
2018-05-18T15:34:45.297Z,61.52
2018-05-18T15:35:48.325Z,84.23
2018-05-18T15:36:46.322Z,82.03
2018-05-18T15:37:46.324Z,58.11
2018-05-18T15:39:08.754Z,84.47
2018-05-18T15:39:46.823Z,76.42
2018-05-18T15:43:18.661Z,80.32
2018-05-18T15:44:19.200Z,82.03
2018-05-18T15:45:18.304Z,83.50
2018-05-18T15:46:20.193Z,83.74
2018-05-18T15:47:25.200Z,82.03
2018-05-18T15:48:20.632Z,81.79
2018-05-18T15:49:42.132Z,59.08
2018-05-18T15:50:21.704Z,76.90
2018-05-18T15:51:40.701Z,82.52
2018-05-18T15:52:19.700Z,81.54
2018-05-18T15:53:20.200Z,64.94
2018-05-18T15:54:20.200Z,62.01
2018-05-18T15:55:20.200Z,82.03
2018-05-18T15:56:20.200Z,85.21
2018-05-18T15:57:20.779Z,63.23
2018-05-18T15:58:20.703Z,82.28
2018-05-18T15:59:26.701Z,84.47
2018-05-18T16:00:20.214Z,84.47
2018-05-18T16:01:21.200Z,83.25
2018-05-18T16:04:52.578Z,80.32
2018-05-18T16:05:52.582Z,83.01
2018-05-18T16:06:53.084Z,89.11
2018-05-18T16:07:55.012Z,84.47
2018-05-18T16:08:53.078Z,81.54
2018-05-18T16:09:53.078Z,82.52
2018-05-18T16:10:53.579Z,59.08
2018-05-18T16:12:07.578Z,84.47
2018-05-18T16:12:59.666Z,79.35
2018-05-18T16:13:53.597Z,58.59
2018-05-18T16:15:15.081Z,85.94
2018-05-18T16:16:08.080Z,82.76
2018-05-18T16:16:54.078Z,62.50
2018-05-18T16:17:54.082Z,86.67
2018-05-18T16:18:54.579Z,81.79
2018-05-18T16:19:55.574Z,81.30
2018-05-18T16:21:15.579Z,79.35
2018-05-18T16:21:54.578Z,82.76
2018-05-18T16:23:16.080Z,85.21
2018-05-18T16:23:55.083Z,83.25
2018-05-18T16:25:16.082Z,81.54
2018-05-18T16:25:55.081Z,74.46
2018-05-18T16:27:18.579Z,82.03
2018-05-18T16:28:20.011Z,56.40
2018-05-18T16:28:54.931Z,83.98
2018-05-18T16:29:55.578Z,80.08
2018-05-18T16:30:56.079Z,83.50
2018-05-18T16:31:56.079Z,64.45
2018-05-18T16:32:56.105Z,81.30
2018-05-18T16:33:56.080Z,80.08
2018-05-18T16:35:16.693Z,82.03
2018-05-18T16:35:56.579Z,84.23
2018-05-18T16:36:56.578Z,80.81
2018-05-18T16:37:56.580Z,83.98
2018-05-18T16:38:56.586Z,81.05
2018-05-18T16:39:57.079Z,49.56
2018-05-18T16:40:57.085Z,83.98
2018-05-18T16:41:58.510Z,57.37
2018-05-18T16:42:57.078Z,52.49
2018-05-18T16:43:57.581Z,80.57
2018-05-18T16:44:58.576Z,81.05
2018-05-18T16:45:57.578Z,70.31
2018-05-18T16:46:57.582Z,83.01
2018-05-18T16:47:57.176Z,82.76
2018-05-18T16:48:58.083Z,82.76
2018-05-18T16:49:59.510Z,82.52
2018-05-18T16:50:58.078Z,83.50
2018-05-18T16:51:58.581Z,82.52
2018-05-18T16:52:57.812Z,80.08
2018-05-18T16:54:19.578Z,84.72
2018-05-18T16:59:25.699Z,83.50
2018-05-18T17:00:23.225Z,80.57
2018-05-18T17:01:30.724Z,77.64
2018-05-18T17:02:04.159Z,81.05
2018-05-18T17:03:16.742Z,77.64
2018-05-18T17:04:23.732Z,83.25
2018-05-18T17:05:02.725Z,84.72
2018-05-18T17:06:18.226Z,83.50
2018-05-18T17:07:24.232Z,84.23